首页
METAR-TAF:

METAR-TAF

机场 :

阿雷格里港, 南里奥格兰德州, 巴西

小萨尔加多国际机场

纬度: 30-00S, 经度: 051-11W, 海拔: 3米

当前天气观测

该预报发布于1小时和9分钟前的14:00 UTC
风速3节,风向多变
温度 29°C
湿度 55%
气压 1014 hPa
能见度10公里或以上
1500米以下无云,无积雨云

METAR: SBPA 201400Z VRB03KT CAVOK 29/19 Q1014

时间: 13:09 (15:09 UTC)

预报

该预报发布于6小时和9分钟前的09:00 UTC
预报有效从20日的 12点(UTC)到 21日的 12点(UTC)
风速11节,风向
能见度10公里或以上
1500米以下无云,无积雨云
成为
从 20日的 12点(UTC)到 20日的 14点(UTC)
能见度10公里或以上
散云层高于3000英尺
成为
从 20日的 16点(UTC)到 20日的 18点(UTC)
风速12节,风向东转东南
成为
从 21日的 04点(UTC)到 21日的 06点(UTC)
风速12节,风向
几率 40%
在之间 T和点(UTC)

TAF: SBPA 200900Z 2012/2112 09011KT CAVOK TX32/2017Z TN22/2108Z BECMG 2012/2014 9999 SCT030 BECMG 2016/2018 11012KT BECMG 2104/2106 09012KT PROB40 T

超过4000个机场的气象观测和天气预报(METAR&TAF报告)。

可查询的气象台以黄色和红色小点在地图上表示。

将鼠标移到小点上方,可查看气象台名称。

然后点击查看天气观测和预报。

如需切换地图:点击带黑十字的绿色按钮放大地图;点击带横线的绿色按钮缩小地图;或者点击绿色箭头查看邻近地区的地图。


METAR-TAF: